createdAt,value
2018-12-31T00:01:21.476Z,1.83
2018-12-31T00:03:47.412Z,1.70
2018-12-31T00:06:13.407Z,2.73
2018-12-31T00:08:39.436Z,1.43
2018-12-31T00:11:05.421Z,2.37
2018-12-31T00:13:31.892Z,1.17
2018-12-31T00:15:57.839Z,5.10
2018-12-31T00:18:23.789Z,3.43
2018-12-31T00:20:49.740Z,1.87
2018-12-31T00:23:15.685Z,1.70
2018-12-31T00:25:41.637Z,2.27
2018-12-31T00:28:07.590Z,1.97
2018-12-31T00:30:33.518Z,2.00
2018-12-31T00:32:59.458Z,1.40
2018-12-31T00:35:25.430Z,1.23
2018-12-31T00:37:51.494Z,2.10
2018-12-31T00:40:17.432Z,7.03
2018-12-31T00:42:43.386Z,1.30
2018-12-31T00:45:09.350Z,2.53
2018-12-31T00:47:35.312Z,1.23
2018-12-31T00:50:01.379Z,2.00
2018-12-31T00:52:27.519Z,3.70
2018-12-31T00:54:53.455Z,4.50
2018-12-31T00:57:19.416Z,1.30
2018-12-31T00:59:45.389Z,2.80
2018-12-31T01:02:11.531Z,1.60
2018-12-31T01:04:37.481Z,1.87
2018-12-31T01:07:03.453Z,2.00
2018-12-31T01:09:29.505Z,1.63
2018-12-31T01:11:55.467Z,3.73
2018-12-31T01:14:21.408Z,1.83
2018-12-31T01:16:47.359Z,3.50
2018-12-31T01:19:13.319Z,2.03
2018-12-31T01:21:39.366Z,1.30
2018-12-31T01:24:05.301Z,1.80
2018-12-31T01:26:31.253Z,1.27
2018-12-31T01:28:57.207Z,2.17
2018-12-31T01:31:23.157Z,1.77
2018-12-31T01:33:49.141Z,2.47
2018-12-31T01:36:15.069Z,1.37
2018-12-31T01:38:41.030Z,2.43
2018-12-31T01:41:06.976Z,1.60
2018-12-31T01:43:32.941Z,4.23
2018-12-31T01:45:58.860Z,1.70
2018-12-31T01:48:24.800Z,1.70
2018-12-31T01:50:50.782Z,9.00
2018-12-31T01:53:16.726Z,1.30
2018-12-31T01:55:42.668Z,5.67
2018-12-31T01:58:08.636Z,1.70
2018-12-31T02:00:34.569Z,1.50
2018-12-31T02:03:00.512Z,1.70
2018-12-31T02:05:26.485Z,2.47
2018-12-31T02:07:52.430Z,2.07
2018-12-31T02:10:18.392Z,5.23
2018-12-31T02:12:44.424Z,1.30
2018-12-31T02:15:10.380Z,1.27
2018-12-31T02:17:36.318Z,3.20
2018-12-31T02:20:02.256Z,1.60
2018-12-31T02:22:28.192Z,1.23
2018-12-31T02:24:54.151Z,2.03
2018-12-31T02:27:20.094Z,1.63
2018-12-31T02:29:47.117Z,7.37
2018-12-31T02:32:14.492Z,1.60
2018-12-31T02:34:40.631Z,2.27
2018-12-31T02:37:06.663Z,1.60
2018-12-31T02:39:32.615Z,2.27
2018-12-31T02:41:58.554Z,2.37
2018-12-31T02:44:24.509Z,4.10
2018-12-31T02:46:50.558Z,2.93
2018-12-31T02:49:16.532Z,1.67
2018-12-31T02:51:42.599Z,2.67
2018-12-31T02:54:08.639Z,3.23
2018-12-31T02:56:34.605Z,1.40
2018-12-31T02:59:00.552Z,3.27
2018-12-31T03:01:26.515Z,1.63
2018-12-31T03:03:52.548Z,1.50
2018-12-31T03:06:18.499Z,1.07
2018-12-31T03:08:44.446Z,1.50
2018-12-31T03:11:10.421Z,2.20
2018-12-31T03:13:36.451Z,1.20
2018-12-31T03:16:02.416Z,1.70
2018-12-31T03:18:28.469Z,1.20
2018-12-31T03:20:54.412Z,2.53
2018-12-31T03:23:20.406Z,1.43
2018-12-31T03:25:46.404Z,1.67
2018-12-31T03:28:12.339Z,1.47
2018-12-31T03:30:38.493Z,2.87
2018-12-31T03:33:04.545Z,1.53
2018-12-31T03:35:30.468Z,2.33
2018-12-31T03:37:56.614Z,2.40
2018-12-31T03:40:22.550Z,1.23
2018-12-31T03:42:48.510Z,1.57
2018-12-31T03:45:14.450Z,1.60
2018-12-31T03:47:40.481Z,1.40
2018-12-31T03:50:06.430Z,2.87
2018-12-31T03:52:32.385Z,2.80
2018-12-31T03:54:58.324Z,1.63
2018-12-31T03:57:24.260Z,4.07
2018-12-31T03:59:50.228Z,1.73
2018-12-31T04:02:16.169Z,2.83
2018-12-31T04:04:42.326Z,1.50
2018-12-31T04:07:08.291Z,1.87
2018-12-31T04:09:35.069Z,1.40
2018-12-31T04:12:01.284Z,1.00
2018-12-31T04:14:27.993Z,1.00
2018-12-31T04:16:53.940Z,1.40
2018-12-31T04:19:19.880Z,1.47
2018-12-31T04:21:45.843Z,2.00
2018-12-31T04:24:11.797Z,1.50
2018-12-31T04:26:37.749Z,1.20
2018-12-31T04:29:03.726Z,1.20
2018-12-31T04:31:29.686Z,1.57
2018-12-31T04:33:55.739Z,1.30
2018-12-31T04:36:21.690Z,1.77
2018-12-31T04:38:47.635Z,1.20
2018-12-31T04:41:13.567Z,2.13
2018-12-31T04:43:39.511Z,1.40
2018-12-31T04:46:05.445Z,1.80
2018-12-31T04:48:31.384Z,3.80
2018-12-31T04:50:57.331Z,1.50
2018-12-31T04:53:23.297Z,1.90
2018-12-31T04:55:49.353Z,1.20
2018-12-31T04:58:22.782Z,1.23
2018-12-31T05:00:43.243Z,2.70
2018-12-31T05:03:09.189Z,1.57
2018-12-31T05:05:35.113Z,1.10
2018-12-31T05:08:01.073Z,1.33
2018-12-31T05:10:27.006Z,1.90
2018-12-31T05:12:52.963Z,1.20
2018-12-31T05:15:18.889Z,1.00
2018-12-31T05:17:44.819Z,2.50
2018-12-31T05:20:10.758Z,1.10
2018-12-31T05:22:36.713Z,1.67
2018-12-31T05:25:02.682Z,1.67
2018-12-31T05:27:28.620Z,2.03
2018-12-31T05:29:54.557Z,3.80
2018-12-31T05:32:20.536Z,1.57
2018-12-31T05:34:46.578Z,1.43
2018-12-31T05:37:12.515Z,1.00
2018-12-31T05:39:38.477Z,1.40
2018-12-31T05:42:04.522Z,1.33
2018-12-31T05:44:31.359Z,2.57
2018-12-31T05:46:57.324Z,1.50
2018-12-31T05:49:23.289Z,2.30
2018-12-31T05:51:49.336Z,2.00
2018-12-31T05:54:15.371Z,1.07
2018-12-31T05:56:41.333Z,1.37
2018-12-31T05:59:07.295Z,1.50
2018-12-31T06:01:33.263Z,1.73
2018-12-31T06:03:59.213Z,1.13
2018-12-31T06:06:25.169Z,1.37
2018-12-31T06:08:51.115Z,1.37
2018-12-31T06:11:17.110Z,1.33
2018-12-31T06:13:43.113Z,2.80
2018-12-31T06:16:09.063Z,1.30
2018-12-31T06:18:35.010Z,1.30
2018-12-31T06:21:00.963Z,1.77
2018-12-31T06:23:26.896Z,1.20
2018-12-31T06:25:52.851Z,1.43
2018-12-31T06:28:18.804Z,1.50
2018-12-31T06:30:44.761Z,2.50
2018-12-31T06:33:10.697Z,1.93
2018-12-31T06:35:36.634Z,1.23
2018-12-31T06:38:02.576Z,2.40
2018-12-31T06:40:28.691Z,5.50
2018-12-31T06:42:54.661Z,2.13
2018-12-31T06:45:20.623Z,1.27
2018-12-31T06:47:46.564Z,2.97
2018-12-31T06:50:12.507Z,10.53
2018-12-31T06:52:38.473Z,5.53
2018-12-31T06:55:04.406Z,2.77
2018-12-31T06:57:30.367Z,1.27
2018-12-31T06:59:56.597Z,4.20
2018-12-31T07:02:22.549Z,2.57
2018-12-31T07:04:48.493Z,1.00
2018-12-31T07:07:14.429Z,1.33
2018-12-31T07:09:40.365Z,1.50
2018-12-31T07:12:06.297Z,1.50
2018-12-31T07:14:32.255Z,4.80
2018-12-31T07:16:58.207Z,1.03
2018-12-31T07:19:24.150Z,1.70
2018-12-31T07:21:50.107Z,1.10
2018-12-31T07:24:16.069Z,1.10
2018-12-31T07:26:42.112Z,1.50
2018-12-31T07:29:08.080Z,1.27
2018-12-31T07:31:34.008Z,6.50
2018-12-31T07:33:59.964Z,1.00
2018-12-31T07:36:25.916Z,3.57
2018-12-31T07:38:51.882Z,1.00
2018-12-31T07:41:17.842Z,1.60
2018-12-31T07:43:43.788Z,1.80
2018-12-31T07:46:09.746Z,1.57
2018-12-31T07:48:35.718Z,1.43
2018-12-31T07:51:01.677Z,1.40
2018-12-31T07:53:27.636Z,1.30
2018-12-31T07:55:53.570Z,1.03
2018-12-31T07:58:19.526Z,1.50
2018-12-31T08:00:45.457Z,1.03
2018-12-31T08:03:11.412Z,1.10
2018-12-31T08:05:37.358Z,1.60
2018-12-31T08:08:03.301Z,1.83
2018-12-31T08:10:29.254Z,2.07
2018-12-31T08:12:55.192Z,1.00
2018-12-31T08:15:21.118Z,1.13
2018-12-31T08:17:47.073Z,2.30
2018-12-31T08:20:13.014Z,1.53
2018-12-31T08:22:38.962Z,7.10
2018-12-31T08:25:04.909Z,7.60
2018-12-31T08:27:30.842Z,1.43
2018-12-31T08:29:56.812Z,1.73
2018-12-31T08:32:22.737Z,1.27
2018-12-31T08:34:51.376Z,1.53
2018-12-31T08:37:17.344Z,1.47
2018-12-31T08:39:43.272Z,1.63
2018-12-31T08:42:09.239Z,4.37
2018-12-31T08:44:35.198Z,1.90
2018-12-31T08:47:01.148Z,1.40
2018-12-31T08:49:27.105Z,1.00
2018-12-31T08:51:53.148Z,5.07
2018-12-31T08:54:19.115Z,1.47
2018-12-31T08:56:45.299Z,1.90
2018-12-31T08:59:11.258Z,3.40
2018-12-31T09:01:37.216Z,5.93
2018-12-31T09:04:03.149Z,2.53
2018-12-31T09:06:29.080Z,5.20
2018-12-31T09:08:55.045Z,18.03
2018-12-31T09:11:20.997Z,1.70
2018-12-31T09:16:32.448Z,1.67
2018-12-31T09:18:58.397Z,1.30
2018-12-31T09:21:24.344Z,2.13
2018-12-31T09:23:50.291Z,0.93
2018-12-31T09:26:16.240Z,2.07
2018-12-31T09:28:42.210Z,1.53
2018-12-31T09:31:08.427Z,5.13
2018-12-31T09:33:35.065Z,1.43
2018-12-31T09:36:01.020Z,3.97
2018-12-31T09:38:27.053Z,1.47
2018-12-31T09:40:53.005Z,3.50
2018-12-31T09:43:18.966Z,11.43
2018-12-31T09:45:45.012Z,1.37
2018-12-31T09:48:10.977Z,1.23
2018-12-31T09:50:37.002Z,3.60
2018-12-31T09:53:03.044Z,0.80
2018-12-31T09:55:28.984Z,1.50
2018-12-31T09:57:54.925Z,1.10
2018-12-31T10:00:20.890Z,3.57
2018-12-31T10:02:46.843Z,1.03
2018-12-31T10:05:12.773Z,9.53
2018-12-31T10:07:38.733Z,4.87
2018-12-31T10:10:04.777Z,2.03
2018-12-31T10:12:30.749Z,3.83
2018-12-31T10:14:56.802Z,0.90
2018-12-31T10:17:22.784Z,0.80
2018-12-31T10:19:48.835Z,0.80
2018-12-31T10:22:14.773Z,2.23
2018-12-31T10:24:40.723Z,3.03
2018-12-31T10:27:06.687Z,1.20
2018-12-31T10:29:36.253Z,4.63
2018-12-31T10:32:00.569Z,1.00
2018-12-31T10:34:26.523Z,1.80
2018-12-31T10:36:52.491Z,1.43
2018-12-31T10:39:18.541Z,1.70
2018-12-31T10:41:44.485Z,2.93
2018-12-31T10:44:10.443Z,2.67
2018-12-31T10:46:36.426Z,1.03
2018-12-31T10:49:02.397Z,1.60
2018-12-31T10:51:28.333Z,0.80
2018-12-31T10:53:54.300Z,1.00
2018-12-31T10:56:20.342Z,0.80
2018-12-31T10:58:46.315Z,1.43
2018-12-31T11:01:12.318Z,8.77
2018-12-31T11:03:38.294Z,2.53
2018-12-31T11:06:04.248Z,1.20
2018-12-31T11:08:30.232Z,1.70
2018-12-31T11:10:56.228Z,0.90
2018-12-31T11:13:22.170Z,9.13
2018-12-31T11:15:48.132Z,2.67
2018-12-31T11:18:14.141Z,4.50
2018-12-31T11:20:40.096Z,8.17
2018-12-31T11:23:06.056Z,12.53
2018-12-31T11:25:32.020Z,1.27
2018-12-31T11:27:57.983Z,1.97
2018-12-31T11:30:24.021Z,5.50
2018-12-31T11:32:49.981Z,1.77
2018-12-31T11:35:16.129Z,2.37
2018-12-31T11:37:42.073Z,4.40
2018-12-31T11:40:08.035Z,4.27
2018-12-31T11:42:34.008Z,1.50
2018-12-31T11:44:59.974Z,1.60
2018-12-31T11:47:26.032Z,1.30
2018-12-31T11:49:52.094Z,4.17
2018-12-31T11:52:18.015Z,1.50
2018-12-31T11:54:44.558Z,2.23
2018-12-31T11:57:10.625Z,2.50
2018-12-31T11:59:36.662Z,1.23
2018-12-31T12:02:02.648Z,9.57
2018-12-31T12:04:28.601Z,2.13
2018-12-31T12:06:54.553Z,1.40
2018-12-31T12:09:20.532Z,13.60
2018-12-31T12:11:46.590Z,1.40
2018-12-31T12:14:12.582Z,4.53
2018-12-31T12:16:38.665Z,1.63
2018-12-31T12:19:05.120Z,1.20
2018-12-31T12:21:31.080Z,3.40
2018-12-31T12:23:57.143Z,5.13
2018-12-31T12:26:23.180Z,6.00
2018-12-31T12:28:49.156Z,6.37
2018-12-31T12:31:15.200Z,4.27
2018-12-31T12:33:41.134Z,2.00
2018-12-31T12:36:07.070Z,1.87
2018-12-31T12:38:33.048Z,3.50
2018-12-31T12:40:59.187Z,1.40
2018-12-31T12:43:25.155Z,13.17
2018-12-31T12:45:51.127Z,2.70
2018-12-31T12:48:17.183Z,2.10
2018-12-31T12:50:43.432Z,1.97
2018-12-31T12:53:09.477Z,1.50
2018-12-31T12:55:35.436Z,3.97
2018-12-31T12:58:01.442Z,5.67
2018-12-31T13:00:27.546Z,1.63
2018-12-31T13:02:53.597Z,1.47
2018-12-31T13:05:19.936Z,1.90
2018-12-31T13:07:46.895Z,2.00
2018-12-31T13:10:13.024Z,1.70
2018-12-31T13:12:39.082Z,2.10
2018-12-31T13:15:05.116Z,1.50
2018-12-31T13:17:31.062Z,3.03
2018-12-31T13:19:57.514Z,2.03
2018-12-31T13:22:23.480Z,3.83
2018-12-31T13:24:49.504Z,1.43
2018-12-31T13:27:15.492Z,1.10
2018-12-31T13:29:41.567Z,3.60
2018-12-31T13:32:07.616Z,5.00
2018-12-31T13:34:33.577Z,1.40
2018-12-31T13:36:59.524Z,1.90
2018-12-31T13:39:25.485Z,1.23
2018-12-31T13:41:51.542Z,2.03
2018-12-31T13:44:17.712Z,4.90
2018-12-31T13:46:43.727Z,1.50
2018-12-31T13:49:11.613Z,2.30
2018-12-31T13:51:37.654Z,1.90
2018-12-31T13:54:03.710Z,1.30
2018-12-31T13:56:29.651Z,3.30
2018-12-31T13:58:55.604Z,2.40
2018-12-31T14:01:21.655Z,1.37
2018-12-31T14:03:47.601Z,4.00
2018-12-31T14:06:14.048Z,2.13
2018-12-31T14:08:40.005Z,1.77
2018-12-31T14:11:05.969Z,1.30
2018-12-31T14:13:32.056Z,8.33
2018-12-31T14:15:59.027Z,1.73
2018-12-31T14:18:25.000Z,5.60
2018-12-31T14:20:51.338Z,1.87
2018-12-31T14:23:17.305Z,1.30
2018-12-31T14:25:43.375Z,1.40
2018-12-31T14:28:09.424Z,3.07
2018-12-31T14:30:35.387Z,1.30
2018-12-31T14:33:01.463Z,3.07
2018-12-31T14:35:27.540Z,1.03
2018-12-31T14:37:53.482Z,2.10
2018-12-31T14:40:19.420Z,1.33
2018-12-31T14:42:45.388Z,3.50
2018-12-31T14:45:11.432Z,3.60
2018-12-31T14:47:37.403Z,1.43
2018-12-31T14:50:03.434Z,3.87
2018-12-31T14:52:30.175Z,1.40
2018-12-31T14:54:56.270Z,3.33
2018-12-31T14:57:22.384Z,4.13
2018-12-31T14:59:48.329Z,8.03
2018-12-31T15:02:14.297Z,1.20
2018-12-31T15:04:40.360Z,2.13
2018-12-31T15:07:06.439Z,6.83
2018-12-31T15:09:32.490Z,3.37
2018-12-31T15:11:58.547Z,1.33
2018-12-31T15:14:24.509Z,3.37
2018-12-31T15:16:50.546Z,1.90
2018-12-31T15:19:16.619Z,1.37
2018-12-31T15:21:42.675Z,1.93
2018-12-31T15:24:08.621Z,1.30
2018-12-31T15:26:34.589Z,4.10
2018-12-31T15:29:00.655Z,4.93
2018-12-31T15:31:26.693Z,1.23
2018-12-31T15:33:52.675Z,2.13
2018-12-31T15:36:18.698Z,1.30
2018-12-31T15:38:45.072Z,1.27
2018-12-31T15:41:11.141Z,1.27
2018-12-31T15:43:37.210Z,1.03
2018-12-31T15:46:03.257Z,1.87
2018-12-31T15:48:29.199Z,2.43
2018-12-31T15:50:55.169Z,1.50
2018-12-31T15:53:21.233Z,1.83
2018-12-31T15:55:47.172Z,9.10
2018-12-31T15:58:13.245Z,6.13
2018-12-31T16:00:39.212Z,3.47
2018-12-31T16:03:05.264Z,2.47
2018-12-31T16:05:31.213Z,2.10
2018-12-31T16:07:57.150Z,1.43
2018-12-31T16:10:23.415Z,3.33
2018-12-31T16:12:49.380Z,1.43
2018-12-31T16:15:15.417Z,1.60
2018-12-31T16:17:41.373Z,1.20
2018-12-31T16:20:07.440Z,1.47
2018-12-31T16:22:33.494Z,3.03
2018-12-31T16:24:59.539Z,6.57
2018-12-31T16:27:25.483Z,2.40
2018-12-31T16:29:51.457Z,1.53
2018-12-31T16:32:17.517Z,8.57
2018-12-31T16:34:44.326Z,4.67
2018-12-31T16:37:10.393Z,1.20
2018-12-31T16:39:36.352Z,7.60
2018-12-31T16:42:02.830Z,6.33
2018-12-31T16:44:28.880Z,1.97
2018-12-31T16:46:54.919Z,1.57
2018-12-31T16:49:20.978Z,5.93
2018-12-31T16:51:47.047Z,2.53
2018-12-31T16:54:13.098Z,14.03
2018-12-31T16:56:39.080Z,1.23
2018-12-31T16:59:05.024Z,4.47
2018-12-31T17:01:30.956Z,3.27
2018-12-31T17:03:56.919Z,2.77
2018-12-31T17:06:22.957Z,2.03
2018-12-31T17:08:48.938Z,5.77
2018-12-31T17:11:14.896Z,1.67
2018-12-31T17:13:40.953Z,3.73
2018-12-31T17:16:06.893Z,8.17
2018-12-31T17:18:32.957Z,3.17
2018-12-31T17:20:58.992Z,6.03
2018-12-31T17:23:25.058Z,7.23
2018-12-31T17:25:51.135Z,2.00
2018-12-31T17:28:17.952Z,6.60
2018-12-31T17:30:44.404Z,1.77
2018-12-31T17:33:10.786Z,5.10
2018-12-31T17:35:36.864Z,4.03
2018-12-31T17:38:02.838Z,3.33
2018-12-31T17:40:28.861Z,2.63
2018-12-31T17:42:54.886Z,2.80
2018-12-31T17:45:23.214Z,3.80
2018-12-31T17:47:48.744Z,5.67
2018-12-31T17:50:14.806Z,4.93
2018-12-31T17:52:40.976Z,4.33
2018-12-31T17:55:07.026Z,3.17
2018-12-31T17:57:33.006Z,2.27
2018-12-31T17:59:59.052Z,2.13
2018-12-31T18:02:25.426Z,3.47
2018-12-31T18:04:51.487Z,5.53
2018-12-31T18:07:17.530Z,8.60
2018-12-31T18:09:43.508Z,13.63
2018-12-31T18:12:09.560Z,12.57
2018-12-31T18:14:35.626Z,13.03
2018-12-31T18:17:01.769Z,10.97
2018-12-31T18:19:27.888Z,16.70
2018-12-31T18:21:53.932Z,31.77
2018-12-31T18:24:19.886Z,8.50
2018-12-31T18:26:45.929Z,17.57
2018-12-31T18:29:11.876Z,9.07
2018-12-31T18:31:37.811Z,11.00
2018-12-31T18:34:18.609Z,3.17
2018-12-31T18:36:53.018Z,12.83
2018-12-31T18:39:21.404Z,9.23
2018-12-31T18:41:47.451Z,10.97
2018-12-31T18:44:13.718Z,11.07
2018-12-31T18:46:39.668Z,14.13
2018-12-31T18:49:05.630Z,16.87
2018-12-31T18:51:31.575Z,33.50
2018-12-31T18:53:57.631Z,9.93
2018-12-31T18:56:23.695Z,37.33
2018-12-31T18:58:49.736Z,22.63
2018-12-31T19:01:15.696Z,21.90
2018-12-31T19:03:41.652Z,29.10
2018-12-31T19:06:07.718Z,22.17
2018-12-31T19:08:33.831Z,13.10
2018-12-31T19:10:59.870Z,11.77
2018-12-31T19:13:25.844Z,17.07
2018-12-31T19:15:52.184Z,19.43
2018-12-31T19:18:18.150Z,12.10
2018-12-31T19:20:44.227Z,10.53
2018-12-31T19:23:10.236Z,9.63
2018-12-31T19:25:36.196Z,9.83
2018-12-31T19:28:02.280Z,11.17
2018-12-31T19:30:28.316Z,17.47
2018-12-31T19:32:54.572Z,9.33
2018-12-31T19:35:20.514Z,15.53
2018-12-31T19:37:46.452Z,18.00
2018-12-31T19:40:12.401Z,19.40
2018-12-31T19:42:38.451Z,12.77
2018-12-31T19:45:04.418Z,16.37
2018-12-31T19:47:30.510Z,16.67
2018-12-31T19:49:56.571Z,13.43
2018-12-31T19:52:22.619Z,19.67
2018-12-31T19:54:48.557Z,29.50
2018-12-31T19:57:14.499Z,14.87
2018-12-31T19:59:40.460Z,20.67
2018-12-31T20:02:06.528Z,12.77
2018-12-31T20:04:33.262Z,17.90
2018-12-31T20:07:01.398Z,18.33
2018-12-31T20:09:27.168Z,23.13
2018-12-31T20:11:53.205Z,12.17
2018-12-31T20:14:19.164Z,6.60
2018-12-31T20:16:45.202Z,13.73
2018-12-31T20:19:11.240Z,13.37
2018-12-31T20:21:37.295Z,19.70
2018-12-31T20:24:03.347Z,8.63
2018-12-31T20:26:29.379Z,18.70
2018-12-31T20:28:55.335Z,11.90
2018-12-31T20:31:21.398Z,9.13
2018-12-31T20:33:47.472Z,18.43
2018-12-31T20:36:13.509Z,17.93
2018-12-31T20:38:39.786Z,12.67
2018-12-31T20:41:05.826Z,12.77
2018-12-31T20:43:31.874Z,20.13
2018-12-31T20:45:57.802Z,9.93
2018-12-31T20:48:23.756Z,14.07
2018-12-31T20:50:49.801Z,8.13
2018-12-31T20:53:15.753Z,8.50
2018-12-31T20:55:41.989Z,10.53
2018-12-31T20:58:07.952Z,16.43
2018-12-31T21:00:34.029Z,8.63
2018-12-31T21:03:00.091Z,12.23
2018-12-31T21:05:26.037Z,8.97
2018-12-31T21:07:52.497Z,6.73
2018-12-31T21:10:18.440Z,17.50
2018-12-31T21:12:44.929Z,7.27
2018-12-31T21:15:10.983Z,10.00
2018-12-31T21:17:37.063Z,8.20
2018-12-31T21:20:03.130Z,7.33
2018-12-31T21:22:29.179Z,9.13
2018-12-31T21:24:55.283Z,8.23
2018-12-31T21:27:21.242Z,6.30
2018-12-31T21:29:47.306Z,9.10
2018-12-31T21:32:13.347Z,11.73
2018-12-31T21:34:41.236Z,7.80
2018-12-31T21:37:07.137Z,9.47
2018-12-31T21:39:33.100Z,7.70
2018-12-31T21:41:59.147Z,10.07
2018-12-31T21:44:25.508Z,14.90
2018-12-31T21:46:51.546Z,16.20
2018-12-31T21:49:17.506Z,12.00
2018-12-31T21:51:43.566Z,7.30
2018-12-31T21:54:09.534Z,11.90
2018-12-31T21:56:35.576Z,8.47
2018-12-31T21:59:01.632Z,14.97
2018-12-31T22:01:27.966Z,7.73
2018-12-31T22:03:53.931Z,11.40
2018-12-31T22:06:19.864Z,13.20
2018-12-31T22:08:45.925Z,9.43
2018-12-31T22:11:11.984Z,16.63
2018-12-31T22:13:37.956Z,10.33
2018-12-31T22:16:04.049Z,20.13
2018-12-31T22:18:30.314Z,16.53
2018-12-31T22:20:56.339Z,14.33
2018-12-31T22:23:22.290Z,15.13
2018-12-31T22:25:48.241Z,13.80
2018-12-31T22:28:14.198Z,16.80
2018-12-31T22:30:40.184Z,18.77
2018-12-31T22:33:06.221Z,12.00
2018-12-31T22:35:32.201Z,10.43
2018-12-31T22:37:58.241Z,29.00
2018-12-31T22:40:24.187Z,11.50
2018-12-31T22:42:50.244Z,25.77
2018-12-31T22:45:16.254Z,16.53
2018-12-31T22:47:42.221Z,10.03
2018-12-31T22:50:08.660Z,21.30
2018-12-31T22:52:34.638Z,17.30
2018-12-31T22:55:00.587Z,24.43
2018-12-31T22:57:26.670Z,21.47
2018-12-31T22:59:52.632Z,28.40
2018-12-31T23:02:18.701Z,21.27
2018-12-31T23:04:45.813Z,12.00
2018-12-31T23:07:11.853Z,16.93
2018-12-31T23:09:41.449Z,37.90
2018-12-31T23:12:05.683Z,25.20
2018-12-31T23:14:31.815Z,22.97
2018-12-31T23:16:57.882Z,49.27
2018-12-31T23:19:23.939Z,45.80
2018-12-31T23:21:50.283Z,48.27
2018-12-31T23:24:16.344Z,52.63
2018-12-31T23:26:42.417Z,49.50
2018-12-31T23:29:08.470Z,48.17
2018-12-31T23:31:34.715Z,52.67
2018-12-31T23:34:00.665Z,52.17
2018-12-31T23:36:26.622Z,56.07
2018-12-31T23:38:52.680Z,75.77
2018-12-31T23:41:18.708Z,67.20
2018-12-31T23:43:44.652Z,57.23
2018-12-31T23:46:10.609Z,58.83
2018-12-31T23:48:37.536Z,71.87
2018-12-31T23:51:03.708Z,62.50
2018-12-31T23:53:30.078Z,89.90
2018-12-31T23:55:56.129Z,106.87
2018-12-31T23:58:22.065Z,178.43
